Time;durP1;ratioP1;P1;durP2;ratioP2;P2;SDS_P1;SDS_P2;PMS_P1;PMS_P2;Temp;Humidity;BMP_temperature;BMP_pressure;BME280_temperature;BME280_humidity;BME280_pressure;Samples;Min_cycle;Max_cycle;Signal;HPM_P1;HPM_P2
2022/01/27 00:01:06;;;;;;;78.53;35.58;;;;;;;;;;6208531;22;20201;-93
2022/01/27 00:04:25;;;;;;;77.43;35.63;;;;;;;;;;6208353;23;20033;-94
2022/01/27 00:06:32;;;;;;;75.68;35.15;;;;;;;;;;6214796;22;20027;-93
2022/01/27 00:09:12;;;;;;;73.82;33.72;;;;;;;;;;6268241;22;20007;-94
2022/01/27 00:11:43;;;;;;;76.47;34.33;;;;;;;;;;6340312;22;20045;-94
2022/01/27 00:14:12;;;;;;;78.38;36.05;;;;;;;;;;6340301;22;20011;-94
2022/01/27 00:16:43;;;;;;;78.53;35.70;;;;;;;;;;6340120;22;20015;-94
2022/01/27 00:19:15;;;;;;;80.65;35.50;;;;;;;;;;6340103;22;20006;-93
2022/01/27 00:21:44;;;;;;;76.47;34.55;;;;;;;;;;6340160;22;20034;-94
2022/01/27 00:24:15;;;;;;;76.25;33.28;;;;;;;;;;6340772;22;20067;-94
2022/01/27 00:26:42;;;;;;;69.05;33.20;;;;;;;;;;6339302;22;20010;-92
2022/01/27 00:29:09;;;;;;;71.57;33.25;;;;;;;;;;6368254;22;20011;-92
2022/01/27 00:31:37;;;;;;;77.50;33.17;;;;;;;;;;6316634;22;20074;-93
2022/01/27 00:34:05;;;;;;;83.32;36.72;;;;;;;;;;6341892;22;20007;-93
2022/01/27 00:36:33;;;;;;;77.95;32.83;;;;;;;;;;6341720;22;20046;-93
2022/01/27 00:39:07;;;;;;;76.65;34.33;;;;;;;;;;6368386;22;20021;-93
2022/01/27 00:41:38;;;;;;;73.57;32.47;;;;;;;;;;6342552;22;20015;-94
2022/01/27 00:44:06;;;;;;;73.40;32.85;;;;;;;;;;6342200;22;20038;-93
2022/01/27 00:46:40;;;;;;;65.32;31.63;;;;;;;;;;6343541;22;20015;-92
2022/01/27 00:49:10;;;;;;;70.28;30.52;;;;;;;;;;6343520;22;20007;-93
2022/01/27 00:51:42;;;;;;;73.43;32.58;;;;;;;;;;6317024;22;20041;-93
2022/01/27 00:54:17;;;;;;;67.00;31.58;;;;;;;;;;6368567;22;20025;-92
2022/01/27 00:56:56;;;;;;;62.92;30.40;;;;;;;;;;6342498;22;20070;-94
2022/01/27 01:04:38;;;;;;;66.95;30.10;;;;;;;;;;6368234;22;20007;-94
2022/01/27 01:07:09;;;;;;;65.93;31.48;;;;;;;;;;6341738;22;20054;-93
2022/01/27 01:15:14;;;;;;;64.53;29.55;;;;;;;;;;6209507;23;20013;-94
2022/01/27 01:17:52;;;;;;;65.43;30.63;;;;;;;;;;6209091;22;20069;-94
2022/01/27 01:20:23;;;;;;;68.45;29.48;;;;;;;;;;6209924;22;20017;-94
2022/01/27 01:36:45;;;;;;;65.20;28.42;;;;;;;;;;6209008;23;20035;-93
2022/01/27 01:39:12;;;;;;;62.03;27.80;;;;;;;;;;6209194;23;20013;-93
2022/01/27 01:41:39;;;;;;;67.55;30.50;;;;;;;;;;6209341;23;20032;-93
2022/01/27 01:44:06;;;;;;;67.05;30.33;;;;;;;;;;6209110;23;20028;-94
2022/01/27 01:46:36;;;;;;;67.07;29.33;;;;;;;;;;6184765;23;20017;-93
2022/01/27 01:49:05;;;;;;;72.78;31.27;;;;;;;;;;6209511;22;20017;-93
2022/01/27 01:51:33;;;;;;;78.43;30.13;;;;;;;;;;6209041;23;20017;-94
2022/01/27 01:54:10;;;;;;;68.40;30.40;;;;;;;;;;6209067;23;20016;-94
2022/01/27 01:56:38;;;;;;;74.80;31.25;;;;;;;;;;6209007;23;20029;-94
2022/01/27 01:59:06;;;;;;;65.03;29.58;;;;;;;;;;6209159;22;20016;-94
2022/01/27 02:01:35;;;;;;;65.75;30.33;;;;;;;;;;6209619;22;20037;-94
2022/01/27 02:04:06;;;;;;;70.95;31.25;;;;;;;;;;6209196;22;20030;-94
2022/01/27 02:06:39;;;;;;;66.38;32.53;;;;;;;;;;6208849;23;20017;-94
2022/01/27 02:09:22;;;;;;;72.07;32.60;;;;;;;;;;6208427;22;20065;-94
2022/01/27 02:20:19;;;;;;;72.82;31.70;;;;;;;;;;6209593;23;20054;-94
2022/01/27 02:22:47;;;;;;;77.30;31.90;;;;;;;;;;6208555;23;20013;-94
2022/01/27 02:25:14;;;;;;;74.43;31.50;;;;;;;;;;6208860;22;20020;-94
2022/01/27 02:27:44;;;;;;;73.88;32.13;;;;;;;;;;6209673;22;20337;-94
2022/01/27 02:30:12;;;;;;;77.78;31.13;;;;;;;;;;6208829;23;20016;-93
2022/01/27 02:32:39;;;;;;;70.00;31.70;;;;;;;;;;6209426;22;20013;-94
2022/01/27 02:35:06;;;;;;;60.67;30.95;;;;;;;;;;6209323;23;20009;-94
2022/01/27 02:37:33;;;;;;;68.65;32.40;;;;;;;;;;6209686;23;20028;-94
2022/01/27 02:40:01;;;;;;;74.32;32.95;;;;;;;;;;6209187;22;20013;-93
2022/01/27 02:42:34;;;;;;;71.93;33.17;;;;;;;;;;6209052;23;20028;-94
2022/01/27 02:45:04;;;;;;;62.47;29.80;;;;;;;;;;6184063;22;20009;-93
2022/01/27 02:47:31;;;;;;;73.35;32.55;;;;;;;;;;6209079;22;20029;-93
2022/01/27 02:49:58;;;;;;;76.55;32.30;;;;;;;;;;6208263;23;20009;-93
2022/01/27 02:52:26;;;;;;;71.68;31.00;;;;;;;;;;6208295;23;20012;-94
2022/01/27 02:54:55;;;;;;;72.43;32.03;;;;;;;;;;6208650;23;20031;-94
2022/01/27 02:57:24;;;;;;;72.57;31.98;;;;;;;;;;6208666;23;20024;-94
2022/01/27 02:59:54;;;;;;;74.07;31.90;;;;;;;;;;6208509;23;20016;-93
2022/01/27 03:02:22;;;;;;;69.28;29.45;;;;;;;;;;6208638;22;20068;-93
2022/01/27 03:04:49;;;;;;;66.32;31.30;;;;;;;;;;6208703;22;20013;-94
2022/01/27 03:07:20;;;;;;;64.30;30.10;;;;;;;;;;6209599;22;20037;-94
2022/01/27 03:09:48;;;;;;;60.13;29.98;;;;;;;;;;6210025;22;20009;-94
2022/01/27 03:12:16;;;;;;;67.65;32.90;;;;;;;;;;6208938;22;20017;-94
2022/01/27 03:14:43;;;;;;;64.57;29.17;;;;;;;;;;6208965;22;20009;-94
2022/01/27 03:17:10;;;;;;;61.13;29.83;;;;;;;;;;6209474;22;20042;-94
2022/01/27 03:19:38;;;;;;;66.38;30.58;;;;;;;;;;6208129;23;20024;-94
2022/01/27 03:22:06;;;;;;;62.90;28.90;;;;;;;;;;6207435;23;20013;-94
2022/01/27 03:24:34;;;;;;;62.90;29.58;;;;;;;;;;6207566;23;20013;-93
2022/01/27 03:27:02;;;;;;;61.88;30.10;;;;;;;;;;6206546;23;20028;-93
2022/01/27 03:29:31;;;;;;;68.95;32.35;;;;;;;;;;6183016;22;20029;-94
2022/01/27 03:31:58;;;;;;;64.20;29.73;;;;;;;;;;6207792;22;20028;-94
2022/01/27 03:34:26;;;;;;;60.90;30.20;;;;;;;;;;6183499;23;20072;-93
2022/01/27 03:36:55;;;;;;;61.13;28.38;;;;;;;;;;6207705;23;20013;-93
2022/01/27 03:39:27;;;;;;;59.88;29.70;;;;;;;;;;6207253;23;20021;-94
2022/01/27 03:41:57;;;;;;;64.47;30.63;;;;;;;;;;6208707;23;20036;-93
2022/01/27 03:44:28;;;;;;;61.28;28.23;;;;;;;;;;6207946;22;20013;-94
2022/01/27 03:47:00;;;;;;;62.60;30.05;;;;;;;;;;6207021;23;20076;-94
2022/01/27 03:49:28;;;;;;;63.15;29.13;;;;;;;;;;6183031;23;20009;-92
2022/01/27 03:51:59;;;;;;;60.17;28.70;;;;;;;;;;6208823;22;20017;-93
2022/01/27 03:54:26;;;;;;;59.92;30.13;;;;;;;;;;6208103;22;20028;-94
2022/01/27 03:56:53;;;;;;;69.97;30.40;;;;;;;;;;6210194;22;20029;-91
2022/01/27 03:59:20;;;;;;;60.80;30.33;;;;;;;;;;6209030;23;20043;-91
2022/01/27 04:01:49;;;;;;;66.18;32.17;;;;;;;;;;6208160;23;20025;-93
2022/01/27 04:04:16;;;;;;;56.63;28.02;;;;;;;;;;6209760;23;20032;-92
2022/01/27 04:06:44;;;;;;;58.78;29.27;;;;;;;;;;6210474;22;20043;-92
2022/01/27 04:09:12;;;;;;;55.78;28.23;;;;;;;;;;6210867;22;20025;-94
2022/01/27 04:11:40;;;;;;;61.45;28.30;;;;;;;;;;6209917;23;20029;-94
2022/01/27 04:14:08;;;;;;;65.05;30.40;;;;;;;;;;6210611;23;20227;-95
2022/01/27 04:16:35;;;;;;;64.20;30.88;;;;;;;;;;6210408;22;20029;-95
2022/01/27 04:19:02;;;;;;;61.85;29.98;;;;;;;;;;6210259;23;20014;-95
2022/01/27 04:21:30;;;;;;;67.43;31.73;;;;;;;;;;6210515;22;20058;-92
2022/01/27 04:23:56;;;;;;;64.13;29.90;;;;;;;;;;6210963;22;20076;-94
2022/01/27 04:26:33;;;;;;;60.53;30.60;;;;;;;;;;6186622;23;20044;-93
2022/01/27 04:29:01;;;;;;;65.47;30.50;;;;;;;;;;6212287;23;20035;-94
2022/01/27 04:31:29;;;;;;;69.00;32.88;;;;;;;;;;6211168;23;20016;-94
2022/01/27 04:33:59;;;;;;;66.75;32.55;;;;;;;;;;6211083;23;20044;-95
2022/01/27 04:36:31;;;;;;;72.63;32.72;;;;;;;;;;6209976;23;20020;-95
2022/01/27 04:39:16;;;;;;;66.10;31.00;;;;;;;;;;6211110;23;20013;-92
2022/01/27 04:41:52;;;;;;;67.72;33.38;;;;;;;;;;6211867;22;20013;-93
2022/01/27 04:44:48;;;;;;;69.03;32.88;;;;;;;;;;6211610;23;20036;-93
2022/01/27 04:47:22;;;;;;;65.90;32.90;;;;;;;;;;6210713;22;20028;-93
2022/01/27 04:49:49;;;;;;;74.43;32.28;;;;;;;;;;6211013;22;20025;-93
2022/01/27 04:52:16;;;;;;;73.43;35.28;;;;;;;;;;6211521;23;20093;-93
2022/01/27 04:55:26;;;;;;;72.10;34.05;;;;;;;;;;6211606;23;20033;-92
2022/01/27 04:57:37;;;;;;;67.55;33.78;;;;;;;;;;6214899;23;20021;-92
2022/01/27 05:00:04;;;;;;;70.05;34.00;;;;;;;;;;6212252;22;20013;-93
2022/01/27 05:02:46;;;;;;;76.82;36.53;;;;;;;;;;6210142;23;20039;-93
2022/01/27 05:05:21;;;;;;;70.65;32.42;;;;;;;;;;6208465;23;20039;-93
2022/01/27 05:07:56;;;;;;;70.97;34.30;;;;;;;;;;6208676;23;20017;-94
2022/01/27 05:10:26;;;;;;;65.32;32.38;;;;;;;;;;6358786;22;20011;-94
2022/01/27 05:12:59;;;;;;;66.63;31.30;;;;;;;;;;6339476;22;20054;-93
2022/01/27 05:15:26;;;;;;;66.30;32.63;;;;;;;;;;6365755;22;20014;-93
2022/01/27 05:17:54;;;;;;;66.85;32.72;;;;;;;;;;6341049;22;20023;-92
2022/01/27 05:20:20;;;;;;;63.33;31.92;;;;;;;;;;6339218;22;20026;-93
2022/01/27 05:22:53;;;;;;;90.55;32.53;;;;;;;;;;6339586;22;20026;-93
2022/01/27 05:25:20;;;;;;;66.15;31.67;;;;;;;;;;6341372;22;20007;-90
2022/01/27 05:27:47;;;;;;;136.48;35.40;;;;;;;;;;6342652;22;20022;-92
2022/01/27 05:30:13;;;;;;;67.63;32.40;;;;;;;;;;6339032;22;20070;-93
2022/01/27 05:32:47;;;;;;;182.43;43.50;;;;;;;;;;6338722;22;20022;-92
2022/01/27 05:35:16;;;;;;;71.80;32.17;;;;;;;;;;6317312;22;20133;-93
2022/01/27 05:37:43;;;;;;;76.07;35.25;;;;;;;;;;6341538;22;20007;-94
2022/01/27 05:40:12;;;;;;;102.57;37.35;;;;;;;;;;6340620;22;20036;-95
2022/01/27 05:42:38;;;;;;;96.13;35.35;;;;;;;;;;6315114;22;20038;-94
2022/01/27 05:45:06;;;;;;;79.35;35.38;;;;;;;;;;6342061;22;20015;-93
2022/01/27 05:47:34;;;;;;;79.07;35.03;;;;;;;;;;6342220;22;20011;-92
2022/01/27 05:50:02;;;;;;;68.53;33.72;;;;;;;;;;6342485;22;20011;-94
2022/01/27 05:52:30;;;;;;;70.05;33.90;;;;;;;;;;6342368;22;20010;-93
2022/01/27 05:55:00;;;;;;;71.05;34.17;;;;;;;;;;6342571;22;20062;-91
2022/01/27 05:57:26;;;;;;;70.15;35.33;;;;;;;;;;6342228;22;20014;-92
2022/01/27 05:59:56;;;;;;;65.40;33.42;;;;;;;;;;6342560;22;20011;-92
2022/01/27 06:02:24;;;;;;;75.65;36.72;;;;;;;;;;6341792;22;20023;-93
2022/01/27 06:04:52;;;;;;;83.45;36.65;;;;;;;;;;6341906;22;20029;-92
2022/01/27 06:07:21;;;;;;;77.35;37.15;;;;;;;;;;6341726;22;20037;-94
2022/01/27 06:09:52;;;;;;;82.88;38.38;;;;;;;;;;6243126;22;20017;-93
2022/01/27 06:12:19;;;;;;;79.28;37.90;;;;;;;;;;6208814;22;20009;-93
2022/01/27 06:14:47;;;;;;;93.93;38.45;;;;;;;;;;6209020;23;20025;-94
2022/01/27 06:17:14;;;;;;;81.60;36.63;;;;;;;;;;6208968;23;20013;-94
2022/01/27 06:19:44;;;;;;;68.68;34.90;;;;;;;;;;6208854;23;20009;-94
2022/01/27 06:22:13;;;;;;;79.15;37.35;;;;;;;;;;6208732;23;20033;-93
2022/01/27 06:24:41;;;;;;;74.50;36.28;;;;;;;;;;6208218;23;20024;-94
2022/01/27 06:27:10;;;;;;;72.93;32.80;;;;;;;;;;6208073;23;20065;-94
2022/01/27 06:29:41;;;;;;;68.22;33.50;;;;;;;;;;6208456;23;20076;-94
2022/01/27 06:32:08;;;;;;;74.22;35.55;;;;;;;;;;6208701;22;20035;-93
2022/01/27 06:34:36;;;;;;;73.72;34.80;;;;;;;;;;6208956;23;20036;-92
2022/01/27 06:37:11;;;;;;;72.82;35.03;;;;;;;;;;6209042;23;20017;-93
2022/01/27 06:39:41;;;;;;;69.97;35.53;;;;;;;;;;6208882;23;20016;-93
2022/01/27 06:42:11;;;;;;;71.15;34.20;;;;;;;;;;6208358;22;20026;-94
2022/01/27 06:44:39;;;;;;;72.85;34.60;;;;;;;;;;6207864;23;20061;-93
2022/01/27 06:47:11;;;;;;;72.97;36.35;;;;;;;;;;6208021;23;20017;-93
2022/01/27 06:49:38;;;;;;;71.13;35.85;;;;;;;;;;6208318;22;20024;-93
2022/01/27 06:52:12;;;;;;;64.82;32.13;;;;;;;;;;6208552;23;20013;-93
2022/01/27 06:54:42;;;;;;;70.03;36.17;;;;;;;;;;6208536;22;20024;-95
2022/01/27 06:57:09;;;;;;;72.82;34.78;;;;;;;;;;6208447;23;20020;-93
2022/01/27 06:59:37;;;;;;;68.65;34.75;;;;;;;;;;6208563;23;20050;-93
2022/01/27 07:02:08;;;;;;;67.95;33.80;;;;;;;;;;6207812;23;20032;-94
2022/01/27 07:04:39;;;;;;;65.72;32.42;;;;;;;;;;6184416;23;20039;-92
2022/01/27 07:07:07;;;;;;;67.07;33.33;;;;;;;;;;6209715;22;20033;-92
2022/01/27 07:09:48;;;;;;;66.55;33.05;;;;;;;;;;6322265;22;20034;-92
2022/01/27 07:12:16;;;;;;;69.20;34.17;;;;;;;;;;6341064;22;20014;-90
2022/01/27 07:14:44;;;;;;;65.57;32.80;;;;;;;;;;6340988;22;20007;-94
2022/01/27 07:17:14;;;;;;;57.70;28.80;;;;;;;;;;6367462;22;20058;-93
2022/01/27 07:19:42;;;;;;;68.70;31.88;;;;;;;;;;6340855;22;20007;-94
2022/01/27 07:22:11;;;;;;;66.05;30.85;;;;;;;;;;6365356;22;20027;-93
2022/01/27 07:24:41;;;;;;;70.82;33.45;;;;;;;;;;6339911;22;20029;-95
2022/01/27 07:27:10;;;;;;;71.38;32.05;;;;;;;;;;6339698;22;20032;-95
2022/01/27 07:29:37;;;;;;;64.75;34.17;;;;;;;;;;6365762;22;20019;-94
2022/01/27 07:32:06;;;;;;;58.25;30.33;;;;;;;;;;6366479;22;20010;-94
2022/01/27 07:34:44;;;;;;;59.83;30.70;;;;;;;;;;6340786;22;20014;-94
2022/01/27 07:37:14;;;;;;;55.05;29.00;;;;;;;;;;6365222;22;20023;-94
2022/01/27 07:39:44;;;;;;;57.05;30.63;;;;;;;;;;6338756;22;20014;-93
2022/01/27 07:42:11;;;;;;;59.85;29.80;;;;;;;;;;6339948;22;20010;-93
2022/01/27 07:44:45;;;;;;;54.35;27.80;;;;;;;;;;6367457;22;20018;-93
2022/01/27 07:47:14;;;;;;;54.33;28.45;;;;;;;;;;6341362;22;20013;-93
2022/01/27 07:49:41;;;;;;;51.92;26.50;;;;;;;;;;6338915;22;20038;-94
2022/01/27 07:52:18;;;;;;;47.50;25.58;;;;;;;;;;6339121;22;20017;-93
2022/01/27 07:54:47;;;;;;;46.75;25.75;;;;;;;;;;6333249;22;20078;-93
2022/01/27 07:57:16;;;;;;;47.15;26.63;;;;;;;;;;6365261;22;20027;-94
2022/01/27 08:00:05;;;;;;;49.72;26.30;;;;;;;;;;6339695;22;20046;-94
2022/01/27 08:16:23;;;;;;;43.53;22.70;;;;;;;;;;6356895;22;20017;-92
2022/01/27 08:19:12;;;;;;;43.95;24.05;;;;;;;;;;6340648;22;20077;-93
2022/01/27 08:21:52;;;;;;;44.85;23.50;;;;;;;;;;6260520;22;20036;-94
2022/01/27 08:24:38;;;;;;;43.40;22.60;;;;;;;;;;6281848;22;20032;-93
2022/01/27 08:27:19;;;;;;;40.50;23.73;;;;;;;;;;6179231;22;20033;-94
2022/01/27 08:30:15;;;;;;;37.88;23.27;;;;;;;;;;6163429;22;20009;-93
2022/01/27 08:33:05;;;;;;;37.67;22.70;;;;;;;;;;6208542;23;20013;-92
2022/01/27 08:35:45;;;;;;;33.63;20.42;;;;;;;;;;6207651;22;20013;-91
2022/01/27 08:41:47;;;;;;;35.08;21.83;;;;;;;;;;6213503;22;20045;-92
2022/01/27 08:44:30;;;;;;;38.83;21.42;;;;;;;;;;6207347;23;20005;-93
2022/01/27 08:47:18;;;;;;;36.03;21.70;;;;;;;;;;6208807;23;20016;-92
2022/01/27 08:50:07;;;;;;;247.63;29.80;;;;;;;;;;6208947;22;20005;-93
2022/01/27 08:55:23;;;;;;;160.48;27.50;;;;;;;;;;6199586;23;20402;-93
2022/01/27 19:34:37;;;;;;;33.83;2.83;;;;;;;;;;6304413;22;20051;-93
2022/01/27 19:37:07;;;;;;;22.77;3.88;;;;;;;;;;6342218;22;20015;-92
2022/01/27 19:39:36;;;;;;;12.75;2.95;;;;;;;;;;6341942;22;20017;-94
2022/01/27 19:42:08;;;;;;;26.92;2.83;;;;;;;;;;6342573;22;20030;-93
2022/01/27 19:44:53;;;;;;;26.40;3.40;;;;;;;;;;6345550;22;20035;-91
2022/01/27 19:47:23;;;;;;;21.23;3.05;;;;;;;;;;6341808;22;20037;-92
2022/01/27 19:49:52;;;;;;;29.45;3.33;;;;;;;;;;6341310;22;20046;-93
2022/01/27 19:52:22;;;;;;;16.77;2.70;;;;;;;;;;6367922;22;20027;-94
2022/01/27 19:54:54;;;;;;;23.08;3.15;;;;;;;;;;6342124;22;20011;-95
2022/01/27 19:57:23;;;;;;;30.08;3.08;;;;;;;;;;6340032;22;20011;-93
2022/01/27 19:59:50;;;;;;;17.35;3.42;;;;;;;;;;6368110;22;20018;-92
2022/01/27 20:02:18;;;;;;;21.85;3.17;;;;;;;;;;6316576;22;20035;-93
2022/01/27 20:04:49;;;;;;;23.08;3.75;;;;;;;;;;6342512;22;20014;-93
2022/01/27 20:07:18;;;;;;;16.30;2.78;;;;;;;;;;6342124;22;20014;-92
2022/01/27 20:09:46;;;;;;;18.20;2.75;;;;;;;;;;6367564;22;20011;-92
2022/01/27 20:12:15;;;;;;;28.15;3.40;;;;;;;;;;6341849;22;20014;-94
2022/01/27 20:14:59;;;;;;;25.40;3.38;;;;;;;;;;6342814;22;20034;-93
2022/01/27 20:17:34;;;;;;;19.67;3.03;;;;;;;;;;6343416;22;20053;-92
2022/01/27 20:20:02;;;;;;;25.35;3.55;;;;;;;;;;6341598;22;20011;-93
2022/01/27 20:22:45;;;;;;;24.45;2.97;;;;;;;;;;6343319;22;20003;-92
2022/01/27 20:25:15;;;;;;;22.45;3.13;;;;;;;;;;6342119;22;20048;-93
2022/01/27 22:45:19;;;;;;;27.53;3.73;;;;;;;;;;6008985;22;4830032;-93
2022/01/27 22:47:47;;;;;;;22.33;3.30;;;;;;;;;;6190919;23;20011;-93
2022/01/27 22:50:19;;;;;;;19.92;3.30;;;;;;;;;;6215675;23;20009;-93
2022/01/27 22:52:52;;;;;;;31.63;3.92;;;;;;;;;;6215999;23;20009;-92
2022/01/27 22:55:22;;;;;;;29.13;4.82;;;;;;;;;;6190881;23;20009;-92
2022/01/27 22:57:49;;;;;;;34.25;3.55;;;;;;;;;;6190972;23;20077;-92
2022/01/27 23:00:20;;;;;;;30.52;3.50;;;;;;;;;;6191038;23;20009;-92
2022/01/27 23:02:48;;;;;;;33.88;3.70;;;;;;;;;;6215874;23;20017;-92
2022/01/27 23:05:16;;;;;;;27.75;4.63;;;;;;;;;;6190991;23;20008;-94
2022/01/27 23:07:46;;;;;;;26.30;3.75;;;;;;;;;;6190968;23;20035;-93
2022/01/27 23:10:14;;;;;;;29.33;3.65;;;;;;;;;;6190401;23;20005;-93
2022/01/27 23:13:35;;;;;;;24.45;3.90;;;;;;;;;;6191047;23;20004;-93
2022/01/27 23:15:41;;;;;;;34.45;4.25;;;;;;;;;;6201471;23;20014;-94
2022/01/27 23:18:37;;;;;;;30.48;4.47;;;;;;;;;;6190564;23;20041;-93
2022/01/27 23:21:31;;;;;;;38.00;4.40;;;;;;;;;;6191283;23;20009;-90
2022/01/27 23:24:07;;;;;;;35.80;4.15;;;;;;;;;;6215620;23;20040;-93
2022/01/27 23:26:44;;;;;;;25.90;3.50;;;;;;;;;;6190623;23;20005;-93
2022/01/27 23:29:13;;;;;;;38.45;4.55;;;;;;;;;;6190697;23;20028;-93
2022/01/27 23:31:43;;;;;;;32.45;4.00;;;;;;;;;;6215804;23;20005;-92
2022/01/27 23:34:10;;;;;;;31.73;4.05;;;;;;;;;;6190742;23;20032;-93
2022/01/27 23:42:08;;;;;;;28.55;6.25;;;;;;;;;;6214326;23;20009;-94
2022/01/27 23:52:33;;;;;;;32.20;3.83;;;;;;;;;;6184079;23;20013;-93
2022/01/27 23:55:09;;;;;;;40.55;5.10;;;;;;;;;;6183369;23;20020;-92
2022/01/27 23:57:46;;;;;;;34.95;3.80;;;;;;;;;;6183532;23;20012;-92
